Time;durP1;ratioP1;P1;durP2;ratioP2;P2;SDS_P1;SDS_P2;PMS_P1;PMS_P2;Temp;Humidity;BMP_temperature;BMP_pressure;BME280_temperature;BME280_humidity;BME280_pressure;Samples;Min_cycle;Max_cycle;Signal;HPM_P1;HPM_P2
2022/11/14 00:02:15;;;;;;;7.45;4.15;;;;;;;5.46;100.00;100833.09;1742271;82;21031;-69
2022/11/14 00:05:03;;;;;;;7.62;4.47;;;;;;;5.43;100.00;100832.69;1738597;82;21651;-68
2022/11/14 00:07:50;;;;;;;6.97;4.08;;;;;;;5.35;100.00;100838.34;1722988;82;21086;-69
2022/11/14 00:10:36;;;;;;;9.38;5.08;;;;;;;5.30;100.00;100840.31;1727827;82;21082;-68
2022/11/14 00:13:22;;;;;;;6.80;4.55;;;;;;;5.30;100.00;100838.13;1739424;82;21062;-68
2022/11/14 00:16:08;;;;;;;8.98;4.45;;;;;;;5.26;100.00;100839.58;1732397;81;21087;-68
2022/11/14 00:18:55;;;;;;;12.85;5.03;;;;;;;5.22;100.00;100839.17;1726774;82;21066;-68
2022/11/14 00:21:40;;;;;;;10.55;4.67;;;;;;;5.16;100.00;100841.38;1735564;82;21046;-68
2022/11/14 00:24:25;;;;;;;6.45;4.10;;;;;;;5.06;100.00;100845.02;1741297;82;21023;-68
2022/11/14 00:27:11;;;;;;;7.67;4.40;;;;;;;4.98;100.00;100837.13;1724684;82;21027;-68
2022/11/14 00:29:57;;;;;;;7.40;4.30;;;;;;;4.97;100.00;100840.34;1743484;82;21632;-68
2022/11/14 00:32:44;;;;;;;7.50;3.60;;;;;;;4.96;100.00;100837.33;1726727;82;21473;-67
2022/11/14 00:35:29;;;;;;;8.85;4.40;;;;;;;4.94;100.00;100831.84;1720853;82;21647;-70
2022/11/14 00:38:14;;;;;;;9.65;4.87;;;;;;;4.89;100.00;100829.75;1739919;82;21576;-69
2022/11/14 00:40:59;;;;;;;9.00;4.75;;;;;;;4.83;100.00;100821.16;1721070;82;21106;-69
2022/11/14 00:43:44;;;;;;;7.62;4.97;;;;;;;4.75;100.00;100828.09;1728532;82;21074;-69
2022/11/14 00:46:31;;;;;;;10.88;4.80;;;;;;;4.73;100.00;100823.44;1730386;82;21091;-68
2022/11/14 00:49:15;;;;;;;6.75;4.10;;;;;;;4.77;100.00;100825.20;1736405;82;21417;-68
2022/11/14 00:52:01;;;;;;;9.00;4.25;;;;;;;4.77;100.00;100820.64;1725764;82;21047;-68
2022/11/14 00:54:46;;;;;;;7.85;3.95;;;;;;;4.78;100.00;100818.78;1745980;82;21099;-68
2022/11/14 00:57:33;;;;;;;8.95;4.35;;;;;;;4.77;100.00;100819.30;1734610;82;21054;-68
2022/11/14 01:00:18;;;;;;;7.53;4.60;;;;;;;4.76;100.00;100824.88;1749265;82;21087;-68
2022/11/14 01:03:03;;;;;;;8.85;4.78;;;;;;;4.71;100.00;100823.34;1736515;81;21069;-68
2022/11/14 01:05:50;;;;;;;14.20;5.35;;;;;;;4.66;100.00;100828.00;1712668;82;21682;-69
2022/11/14 01:08:35;;;;;;;8.78;5.03;;;;;;;4.66;100.00;100832.05;1707871;82;21111;-68
2022/11/14 01:11:21;;;;;;;8.90;5.05;;;;;;;4.69;100.00;100840.23;1710069;82;21596;-68
2022/11/14 01:14:06;;;;;;;6.30;4.22;;;;;;;4.70;100.00;100831.12;1722038;82;22275;-69
2022/11/14 01:16:51;;;;;;;8.58;4.00;;;;;;;4.68;100.00;100827.78;1711140;82;21389;-68
2022/11/14 01:19:37;;;;;;;9.40;4.65;;;;;;;4.63;100.00;100835.67;1733395;82;21090;-68
2022/11/14 01:22:23;;;;;;;8.45;5.33;;;;;;;4.54;100.00;100832.34;1716453;82;21047;-67
2022/11/14 01:25:08;;;;;;;6.62;3.87;;;;;;;4.47;100.00;100826.11;1717320;82;21150;-67
2022/11/14 01:27:53;;;;;;;7.50;4.60;;;;;;;4.41;100.00;100818.34;1737586;82;21044;-68
2022/11/14 01:30:38;;;;;;;6.90;3.40;;;;;;;4.43;100.00;100825.69;1735974;82;21059;-67
2022/11/14 01:33:25;;;;;;;10.03;4.20;;;;;;;4.42;100.00;100829.44;1710218;82;21063;-68
2022/11/14 01:36:11;;;;;;;7.92;4.30;;;;;;;4.36;100.00;100830.23;1708040;84;21056;-67
2022/11/14 01:38:55;;;;;;;6.83;4.15;;;;;;;4.27;100.00;100832.83;1708021;84;21071;-68
2022/11/14 01:41:42;;;;;;;6.28;4.00;;;;;;;4.22;100.00;100831.25;1730203;82;21095;-67
2022/11/14 01:44:51;;;;;;;8.78;4.17;;;;;;;4.19;100.00;100825.44;1727022;82;21063;-68
2022/11/14 01:47:37;;;;;;;8.60;4.50;;;;;;;4.22;100.00;100825.02;1718863;82;21047;-68
2022/11/14 01:50:22;;;;;;;12.98;5.12;;;;;;;4.14;100.00;100830.11;1713562;82;21138;-70
2022/11/14 01:53:08;;;;;;;13.28;5.05;;;;;;;4.04;100.00;100827.48;1719166;82;21059;-68
2022/11/14 01:55:55;;;;;;;9.83;5.17;;;;;;;3.99;100.00;100835.66;1707915;82;21126;-68
2022/11/14 01:58:43;;;;;;;10.58;5.17;;;;;;;3.97;100.00;100833.66;1726824;82;21095;-67
2022/11/14 02:01:30;;;;;;;8.55;4.67;;;;;;;3.94;100.00;100833.23;1726034;82;21051;-68
2022/11/14 02:04:22;;;;;;;8.35;4.40;;;;;;;3.89;100.00;100832.52;1715676;82;21007;-68
2022/11/14 02:07:07;;;;;;;10.93;5.20;;;;;;;3.89;100.00;100833.03;1711540;82;21012;-68
2022/11/14 02:09:52;;;;;;;17.50;6.33;;;;;;;3.85;100.00;100835.81;1711775;82;21118;-68
2022/11/14 02:12:37;;;;;;;11.50;6.03;;;;;;;3.75;100.00;100840.23;1719507;82;21609;-68
2022/11/14 02:15:23;;;;;;;8.95;6.05;;;;;;;3.71;100.00;100832.23;1713480;82;21087;-68
2022/11/14 02:18:11;;;;;;;8.33;5.75;;;;;;;3.71;100.00;100832.75;1719858;82;21056;-68
2022/11/14 02:20:56;;;;;;;7.92;5.95;;;;;;;3.69;100.00;100833.45;1712579;82;21114;-68
2022/11/14 02:23:42;;;;;;;11.12;6.50;;;;;;;3.68;100.00;100833.16;1725771;82;21083;-67
2022/11/14 02:26:27;;;;;;;16.90;7.85;;;;;;;3.63;100.00;100844.52;1714525;82;21140;-68
2022/11/14 02:29:12;;;;;;;18.90;5.92;;;;;;;3.54;100.00;100843.03;1709688;82;21051;-67
2022/11/14 02:31:58;;;;;;;12.88;5.83;;;;;;;3.50;100.00;100842.59;1734603;82;21523;-67
2022/11/14 02:34:43;;;;;;;7.87;4.35;;;;;;;3.50;100.00;100840.42;1721911;82;21138;-67
2022/11/14 02:37:28;;;;;;;6.83;3.40;;;;;;;3.50;100.00;100839.07;1708664;82;21454;-68
2022/11/14 02:40:14;;;;;;;3.80;2.70;;;;;;;3.49;100.00;100839.58;1734159;82;21131;-67
2022/11/14 02:42:59;;;;;;;5.70;2.83;;;;;;;3.43;100.00;100837.70;1733967;82;21510;-68
2022/11/14 02:45:45;;;;;;;3.58;2.42;;;;;;;3.38;100.00;100840.65;1720208;82;21083;-67
2022/11/14 02:48:30;;;;;;;3.50;2.10;;;;;;;3.31;100.00;100843.30;1733479;82;21114;-67
2022/11/14 02:51:15;;;;;;;6.62;3.00;;;;;;;3.25;100.00;100841.41;1718513;82;21079;-67
2022/11/14 02:54:00;;;;;;;13.35;2.70;;;;;;;3.19;100.00;100836.80;1714525;82;21060;-67
2022/11/14 02:56:46;;;;;;;3.98;2.60;;;;;;;3.09;100.00;100832.28;1725867;82;21537;-66
2022/11/14 02:59:31;;;;;;;5.42;2.58;;;;;;;3.05;100.00;100835.05;1728116;82;21083;-67
2022/11/14 03:02:16;;;;;;;4.10;2.40;;;;;;;3.04;100.00;100836.09;1736605;82;21518;-68
2022/11/14 03:05:01;;;;;;;3.12;2.30;;;;;;;3.01;100.00;100841.88;1723797;82;21074;-67
2022/11/14 03:07:47;;;;;;;7.58;2.20;;;;;;;2.97;100.00;100837.91;1747870;82;21059;-67
2022/11/14 03:10:33;;;;;;;3.83;2.20;;;;;;;2.92;100.00;100827.73;1700731;84;21091;-67
2022/11/14 03:13:18;;;;;;;5.72;1.70;;;;;;;2.89;100.00;100834.84;1731715;82;21011;-68
2022/11/14 03:16:10;;;;;;;12.45;2.30;;;;;;;2.78;100.00;100827.31;1749234;82;21059;-67
2022/11/14 03:18:55;;;;;;;4.60;1.67;;;;;;;2.66;100.00;100830.73;1741446;82;21142;-67
2022/11/14 03:21:41;;;;;;;3.22;1.70;;;;;;;2.59;100.00;100838.71;1730054;82;21043;-67
2022/11/14 03:24:25;;;;;;;3.10;1.50;;;;;;;2.57;100.00;100839.94;1721634;82;21046;-67
2022/11/14 03:27:10;;;;;;;4.33;2.08;;;;;;;2.53;100.00;100840.84;1743679;82;21506;-67
2022/11/14 03:29:55;;;;;;;5.35;2.75;;;;;;;2.49;100.00;100842.23;1739420;82;21106;-67
2022/11/14 03:32:40;;;;;;;7.92;3.45;;;;;;;2.43;100.00;100843.02;1728806;82;21775;-67
2022/11/14 03:35:25;;;;;;;6.85;4.00;;;;;;;2.33;100.00;100842.52;1727902;82;21059;-68
2022/11/14 03:38:10;;;;;;;5.47;4.42;;;;;;;2.29;100.00;100842.56;1732876;82;20992;-67
2022/11/14 03:40:57;;;;;;;5.35;4.58;;;;;;;2.21;100.00;100838.66;1750283;82;22257;-67
2022/11/14 03:43:42;;;;;;;6.22;4.78;;;;;;;2.21;100.00;100848.05;1746418;82;21003;-67
2022/11/14 03:46:27;;;;;;;5.08;4.40;;;;;;;2.17;100.00;100848.95;1744342;82;21039;-67
2022/11/14 03:49:13;;;;;;;5.33;4.28;;;;;;;2.13;100.00;100844.97;1724237;82;21579;-67
2022/11/14 03:51:58;;;;;;;5.12;4.22;;;;;;;2.08;100.00;100852.78;1731674;82;21042;-68
2022/11/14 03:54:43;;;;;;;12.33;4.37;;;;;;;2.04;100.00;100844.78;1726743;82;21043;-67
2022/11/14 03:57:28;;;;;;;7.20;4.92;;;;;;;1.96;100.00;100838.17;1721561;82;21085;-67
2022/11/14 04:00:14;;;;;;;12.95;7.08;;;;;;;1.84;100.00;100844.53;1729558;82;21130;-68
2022/11/14 04:02:59;;;;;;;10.05;6.53;;;;;;;1.79;100.00;100847.48;1729140;82;21047;-67
2022/11/14 04:05:45;;;;;;;8.38;5.10;;;;;;;1.75;100.00;100840.30;1747758;81;21074;-67
2022/11/14 04:08:29;;;;;;;6.78;3.95;;;;;;;1.74;100.00;100844.00;1739364;82;21540;-67
2022/11/14 04:11:14;;;;;;;5.45;3.58;;;;;;;1.73;100.00;100840.18;1723365;82;21697;-67
2022/11/14 04:13:59;;;;;;;8.13;3.70;;;;;;;1.69;100.00;100839.72;1742640;82;21091;-67
2022/11/14 04:16:44;;;;;;;12.70;7.25;;;;;;;1.68;100.00;100841.24;1728798;82;21522;-67
2022/11/14 04:19:30;;;;;;;11.10;4.83;;;;;;;1.68;100.00;100846.61;1742208;82;21141;-68
2022/11/14 04:22:16;;;;;;;15.13;5.60;;;;;;;1.63;100.00;100853.87;1721243;82;21031;-67
2022/11/14 04:25:03;;;;;;;7.95;4.62;;;;;;;1.56;100.00;100851.61;1736141;82;21066;-67
2022/11/14 04:27:49;;;;;;;6.87;4.60;;;;;;;1.55;100.00;100855.84;1738806;82;21031;-67
2022/11/14 04:30:34;;;;;;;5.97;3.77;;;;;;;1.58;100.00;100852.78;1729523;82;21558;-67
2022/11/14 04:33:18;;;;;;;4.47;3.22;;;;;;;1.58;100.00;100857.64;1742061;82;21934;-67
2022/11/14 04:36:04;;;;;;;5.87;3.22;;;;;;;1.59;100.00;100864.69;1725095;82;21150;-67
2022/11/14 04:38:49;;;;;;;5.35;2.75;;;;;;;1.58;100.00;100861.67;1733856;82;21510;-66
2022/11/14 04:41:35;;;;;;;7.37;2.70;;;;;;;1.55;100.00;100859.36;1742021;82;21031;-67
2022/11/14 04:44:19;;;;;;;6.20;2.90;;;;;;;1.52;100.00;100859.73;1747252;82;21125;-66
2022/11/14 04:47:04;;;;;;;6.00;2.75;;;;;;;1.43;100.00;100856.80;1739253;82;21498;-68
2022/11/14 04:49:49;;;;;;;6.85;2.60;;;;;;;1.31;100.00;100860.45;1734669;82;21134;-67
2022/11/14 04:52:34;;;;;;;5.40;2.70;;;;;;;1.27;100.00;100871.25;1742985;82;21340;-67
2022/11/14 04:55:20;;;;;;;4.70;2.45;;;;;;;1.27;100.00;100861.87;1737303;82;21047;-66
2022/11/14 04:58:05;;;;;;;4.40;2.62;;;;;;;1.26;100.00;100870.92;1741085;82;21490;-67
2022/11/14 05:00:50;;;;;;;4.62;2.90;;;;;;;1.23;100.00;100871.30;1728339;82;21098;-68
2022/11/14 05:03:36;;;;;;;4.37;3.05;;;;;;;1.18;100.00;100867.48;1732910;82;21533;-67
2022/11/14 05:06:21;;;;;;;4.92;3.25;;;;;;;1.14;100.00;100872.88;1749597;82;21059;-67
2022/11/14 05:09:07;;;;;;;4.20;3.35;;;;;;;1.08;100.00;100879.82;1744886;82;21054;-67
2022/11/14 05:11:51;;;;;;;5.60;2.92;;;;;;;1.06;100.00;100881.03;1742744;82;21019;-67
2022/11/14 05:14:37;;;;;;;3.47;2.60;;;;;;;1.06;100.00;100889.07;1745375;82;21094;-67
2022/11/14 05:17:23;;;;;;;2.92;2.00;;;;;;;1.07;100.00;100884.02;1746940;82;21047;-67
2022/11/14 05:20:09;;;;;;;2.92;1.90;;;;;;;1.08;100.00;100887.86;1738623;82;21086;-68
2022/11/14 05:22:55;;;;;;;3.22;1.87;;;;;;;1.07;100.00;100886.19;1742743;82;21035;-67
2022/11/14 05:25:40;;;;;;;3.42;2.25;;;;;;;1.00;100.00;100890.61;1748426;82;21652;-67
2022/11/14 05:28:25;;;;;;;4.60;1.87;;;;;;;0.98;100.00;100892.66;1749017;82;21027;-67
2022/11/14 05:31:18;;;;;;;2.62;1.90;;;;;;;1.00;100.00;100889.27;1727798;82;21082;-67
2022/11/14 05:34:03;;;;;;;5.08;2.12;;;;;;;1.02;100.00;100890.45;1742027;82;21864;-67
2022/11/14 05:36:49;;;;;;;3.33;2.05;;;;;;;0.99;100.00;100891.66;1743881;82;21556;-66
2022/11/14 10:09:49;;;;;;;12.65;9.08;;;;;;;4.82;100.00;100890.14;1778906;79;23301;-74
2022/11/14 10:13:08;;;;;;;8.95;6.10;;;;;;;4.95;100.00;100892.36;1754680;80;21133;-71
2022/11/14 10:16:27;;;;;;;8.85;5.47;;;;;;;5.26;100.00;100891.72;1684174;81;21895;-70
2022/11/14 10:19:21;;;;;;;9.45;5.78;;;;;;;5.55;100.00;100888.24;1727370;82;21086;-70
2022/11/14 10:22:48;;;;;;;9.80;5.53;;;;;;;5.77;100.00;100890.48;1727363;81;21126;-70
2022/11/14 10:25:54;;;;;;;8.45;4.50;;;;;;;5.94;100.00;100885.46;1749513;80;21016;-70
2022/11/14 10:28:58;;;;;;;7.30;4.37;;;;;;;6.15;100.00;100882.98;1717383;83;21110;-71
2022/11/14 10:31:54;;;;;;;7.53;4.40;;;;;;;6.24;100.00;100879.80;1713375;83;21609;-70
2022/11/14 10:34:51;;;;;;;7.42;5.10;;;;;;;6.37;100.00;100877.05;1708873;83;21066;-70
2022/11/14 10:37:56;;;;;;;7.17;4.53;;;;;;;6.47;100.00;100874.70;1722686;83;21162;-71
2022/11/14 10:40:47;;;;;;;8.03;4.83;;;;;;;6.55;100.00;100871.42;1713936;83;21596;-71
2022/11/14 10:43:40;;;;;;;7.45;4.75;;;;;;;6.55;100.00;100872.26;1703397;83;21981;-71
2022/11/14 10:46:35;;;;;;;7.20;4.00;;;;;;;6.66;100.00;100874.79;1714716;83;21146;-71
2022/11/14 10:49:22;;;;;;;7.85;4.08;;;;;;;6.75;100.00;100872.95;1724119;83;21106;-70
2022/11/14 10:52:15;;;;;;;5.42;3.47;;;;;;;6.83;100.00;100872.69;1750359;81;21663;-70
2022/11/14 10:55:16;;;;;;;8.45;3.90;;;;;;;6.92;100.00;100871.35;1695408;84;21054;-70
2022/11/14 10:58:01;;;;;;;7.70;3.67;;;;;;;6.96;100.00;100872.58;1695511;84;21156;-70
2022/11/14 11:00:47;;;;;;;7.92;3.75;;;;;;;6.85;100.00;100865.68;1682830;84;21430;-70
2022/11/14 11:03:42;;;;;;;7.20;3.75;;;;;;;6.95;100.00;100870.08;1719530;83;21043;-70
2022/11/14 11:06:28;;;;;;;9.28;4.35;;;;;;;7.06;100.00;100873.42;1724224;83;21158;-70
2022/11/14 11:12:47;;;;;;;12.78;5.60;;;;;;;7.27;100.00;100873.55;1733261;81;21624;-70
2022/11/14 11:15:39;;;;;;;9.95;6.00;;;;;;;7.30;100.00;100873.93;1716151;81;21107;-70
2022/11/14 11:18:34;;;;;;;8.58;5.00;;;;;;;7.35;100.00;100865.97;1713019;84;21102;-70
2022/11/14 11:21:21;;;;;;;10.05;4.85;;;;;;;7.37;100.00;100867.92;1714266;81;21538;-70
2022/11/14 11:24:07;;;;;;;15.70;5.67;;;;;;;7.31;100.00;100863.92;1774004;81;21031;-70
2022/11/14 11:27:21;;;;;;;8.95;4.90;;;;;;;7.29;100.00;100862.81;1773908;81;21063;-70
2022/11/14 11:30:17;;;;;;;7.62;4.50;;;;;;;7.31;100.00;100855.28;1688687;84;21126;-71
2022/11/14 11:33:30;;;;;;;7.97;4.55;;;;;;;7.32;100.00;100854.76;1681516;83;21051;-70
2022/11/14 11:36:18;;;;;;;8.25;4.60;;;;;;;7.27;100.00;100846.45;1658398;85;21080;-70
2022/11/14 11:39:03;;;;;;;6.87;4.78;;;;;;;7.14;100.00;100848.78;1717608;83;21070;-70
2022/11/14 11:41:48;;;;;;;10.38;4.42;;;;;;;7.09;100.00;100843.19;1720044;82;21103;-70
2022/11/14 11:44:37;;;;;;;9.70;4.47;;;;;;;7.09;100.00;100846.42;1720408;83;21130;-71
2022/11/14 11:47:22;;;;;;;8.80;4.40;;;;;;;7.10;100.00;100835.90;1720197;83;21091;-71
2022/11/14 11:50:16;;;;;;;8.95;4.80;;;;;;;7.08;100.00;100836.66;1727227;81;21075;-71
2022/11/14 11:53:23;;;;;;;9.20;6.08;;;;;;;7.03;100.00;100834.61;1708798;82;21129;-71
2022/11/14 11:56:15;;;;;;;12.93;8.23;;;;;;;7.12;100.00;100831.11;1741874;81;21079;-71
2022/11/14 11:59:43;;;;;;;14.38;8.78;;;;;;;7.23;100.00;100832.53;1700317;84;21192;-71
2022/11/14 12:02:27;;;;;;;19.32;12.13;;;;;;;7.20;100.00;100823.51;1677791;84;21677;-70
2022/11/14 12:05:25;;;;;;;32.60;19.98;;;;;;;7.27;100.00;100827.50;1773043;81;21078;-71
2022/11/14 12:08:39;;;;;;;40.50;21.42;;;;;;;7.24;100.00;100823.89;1697644;84;21099;-70
2022/11/14 12:11:26;;;;;;;20.62;12.30;;;;;;;7.20;100.00;100822.67;1718740;82;21075;-70
2022/11/14 12:14:41;;;;;;;14.28;8.68;;;;;;;7.19;100.00;100813.72;1719503;83;21082;-70
2022/11/14 12:18:25;;;;;;;11.10;5.90;;;;;;;7.18;100.00;100808.55;1719626;83;21170;-69
2022/11/14 12:21:54;;;;;;;10.32;5.90;;;;;;;7.19;100.00;100802.88;1720608;82;21081;-70
2022/11/14 12:25:16;;;;;;;15.00;7.03;;;;;;;7.10;100.00;100802.88;1718807;83;21109;-70
2022/11/14 12:28:39;;;;;;;11.75;5.85;;;;;;;7.08;100.00;100796.05;1655731;83;21112;-70
2022/11/14 12:31:27;;;;;;;7.37;3.25;;;;;;;7.14;100.00;100800.04;1736832;82;21822;-70
2022/11/14 12:34:24;;;;;;;7.30;3.42;;;;;;;7.18;100.00;100798.55;1735275;82;21061;-71
2022/11/14 12:37:20;;;;;;;;;;;;;;;7.04;100.00;100792.13;1744147;82;21114;-70
2022/11/14 12:40:07;;;;;;;6.33;3.17;;;;;;;6.81;100.00;100787.33;1721861;82;20128;-73
2022/11/14 12:42:52;;;;;;;5.10;3.27;;;;;;;6.54;100.00;100779.97;1693411;82;21093;-67
2022/11/14 12:45:46;;;;;;;5.97;3.27;;;;;;;6.54;100.00;100779.97;1715819;82;21775;-70
2022/11/14 12:48:33;;;;;;;10.18;4.12;;;;;;;6.49;100.00;100776.56;1721603;82;21089;-71
2022/11/14 12:51:36;;;;;;;8.13;4.33;;;;;;;6.39;100.00;100780.80;1719210;82;21070;-71
2022/11/14 12:54:44;;;;;;;7.55;3.90;;;;;;;6.31;100.00;100785.11;1730410;82;21047;-71
2022/11/14 12:57:48;;;;;;;7.45;4.03;;;;;;;6.29;100.00;100785.35;1704952;83;21086;-72
2022/11/14 13:00:52;;;;;;;7.28;4.90;;;;;;;6.27;100.00;100777.16;1718685;82;21030;-70
2022/11/14 13:04:15;;;;;;;8.53;4.70;;;;;;;6.19;100.00;100778.77;1720883;82;21022;-71
2022/11/14 13:07:34;;;;;;;8.70;5.35;;;;;;;6.11;100.00;100774.44;1719180;82;21034;-71
2022/11/14 13:10:27;;;;;;;10.35;5.22;;;;;;;6.10;100.00;100774.12;1729565;80;21038;-71
2022/11/14 13:22:42;;;;;;;6.90;4.80;;;;;;;5.97;100.00;100774.21;1663047;82;72532;-67
2022/11/14 13:25:27;;;;;;;7.42;4.97;;;;;;;5.98;100.00;100774.02;1667416;83;21094;-66
2022/11/14 13:28:46;;;;;;;9.60;5.30;;;;;;;5.98;100.00;100779.42;1667873;84;21487;-66
2022/11/14 13:31:38;;;;;;;8.43;4.45;;;;;;;5.96;100.00;100781.48;1664171;85;21036;-66
2022/11/14 13:34:51;;;;;;;8.03;4.37;;;;;;;5.91;100.00;100784.03;1677870;84;21405;-67
2022/11/14 13:37:58;;;;;;;8.88;4.62;;;;;;;5.93;100.00;100776.52;1664102;83;22495;-66
2022/11/14 13:41:27;;;;;;;7.55;3.50;;;;;;;5.95;100.00;100778.47;1662358;85;21150;-65
2022/11/14 13:44:36;;;;;;;8.07;4.33;;;;;;;5.95;100.00;100780.38;1680812;84;21095;-65
2022/11/14 13:47:27;;;;;;;;;;;;;;;5.81;100.00;100778.20;1615821;87;21493;-65
2022/11/14 13:50:25;;;;;;;7.33;4.53;;;;;;;5.71;100.00;100783.24;1657065;85;20184;-65
2022/11/14 13:53:14;;;;;;;8.53;4.85;;;;;;;5.65;100.00;100785.46;1668202;84;21083;-65
2022/11/14 13:56:05;;;;;;;10.05;4.78;;;;;;;5.62;100.00;100780.48;1690374;83;21122;-66
2022/11/14 13:59:45;;;;;;;9.40;5.65;;;;;;;5.59;100.00;100773.34;1650383;84;21522;-67
2022/11/14 14:02:55;;;;;;;10.90;6.20;;;;;;;5.52;100.00;100784.17;1663894;85;21187;-66
2022/11/14 14:06:05;;;;;;;10.35;6.62;;;;;;;5.41;100.00;100778.91;1663128;86;21178;-66
2022/11/14 14:09:18;;;;;;;11.60;6.83;;;;;;;5.40;100.00;100787.21;1668521;84;21079;-65
2022/11/14 14:12:29;;;;;;;11.75;7.35;;;;;;;5.43;100.00;100784.91;1681086;84;21094;-66
2022/11/14 14:15:32;;;;;;;12.80;7.92;;;;;;;5.46;100.00;100780.95;1666960;84;21090;-64
2022/11/14 14:18:39;;;;;;;12.63;8.18;;;;;;;5.47;100.00;100780.75;1668660;84;21575;-67
2022/11/14 14:22:03;;;;;;;13.75;8.43;;;;;;;5.44;100.00;100781.18;1668650;83;21090;-68
2022/11/14 14:25:00;;;;;;;22.22;13.40;;;;;;;5.39;100.00;100774.74;1667683;85;21537;-67
2022/11/14 14:28:16;;;;;;;19.10;11.05;;;;;;;5.41;100.00;100780.26;1682452;85;21055;-67
2022/11/14 14:31:15;;;;;;;15.00;9.15;;;;;;;5.47;100.00;100780.75;1675410;85;21126;-68
2022/11/14 14:34:01;;;;;;;13.45;8.28;;;;;;;5.50;100.00;100783.53;1653287;85;21596;-67
2022/11/14 14:36:54;;;;;;;13.72;8.03;;;;;;;5.50;100.00;100778.97;1660469;85;21070;-66
2022/11/14 14:39:39;;;;;;;14.05;8.50;;;;;;;5.57;100.00;100780.80;1655725;85;21716;-69
2022/11/14 14:42:25;;;;;;;16.00;8.93;;;;;;;5.60;100.00;100781.20;1657367;85;21193;-67
2022/11/14 14:45:21;;;;;;;43.10;23.47;;;;;;;5.58;100.00;100776.55;1659650;85;21396;-67
2022/11/14 14:48:15;;;;;;;36.53;20.80;;;;;;;5.56;100.00;100783.22;1665732;85;21031;-67
2022/11/14 14:51:01;;;;;;;63.15;33.95;;;;;;;5.54;100.00;100779.37;1673710;85;21126;-67
2022/11/14 14:53:52;;;;;;;17.30;10.48;;;;;;;5.48;100.00;100781.58;1653453;85;21122;-67
2022/11/14 14:56:37;;;;;;;10.03;6.47;;;;;;;5.45;100.00;100775.27;1667655;85;21151;-67
2022/11/14 14:59:23;;;;;;;12.07;6.65;;;;;;;5.48;100.00;100777.53;1658244;86;21040;-67
2022/11/14 15:02:15;;;;;;;21.37;12.20;;;;;;;5.53;100.00;100771.50;1656489;85;21623;-67
2022/11/14 15:05:01;;;;;;;20.02;11.48;;;;;;;5.55;100.00;100773.45;1653691;85;21549;-67
2022/11/14 15:07:48;;;;;;;17.77;10.15;;;;;;;5.57;100.00;100770.00;1671621;85;21069;-67
2022/11/14 15:10:33;;;;;;;18.77;13.10;;;;;;;5.56;100.00;100773.77;1691000;83;21003;-67
2022/11/14 15:13:19;;;;;;;12.70;7.45;;;;;;;5.53;100.00;100773.14;1642993;86;21497;-66
2022/11/14 15:16:04;;;;;;;10.15;5.55;;;;;;;5.51;100.00;100771.19;1663526;83;21099;-67
2022/11/14 15:18:51;;;;;;;8.00;5.15;;;;;;;5.58;100.00;100773.02;1679323;85;21027;-66
2022/11/14 15:21:37;;;;;;;9.40;5.75;;;;;;;5.61;100.00;100772.59;1603553;87;21097;-67
2022/11/14 15:24:22;;;;;;;10.48;5.62;;;;;;;5.60;100.00;100773.10;1621798;87;21067;-67
2022/11/14 15:27:14;;;;;;;9.40;4.85;;;;;;;5.60;100.00;100769.60;1636033;87;21131;-67
2022/11/14 15:30:03;;;;;;;8.53;5.22;;;;;;;5.65;100.00;100773.30;1645133;87;21113;-66
2022/11/14 15:32:54;;;;;;;10.15;5.03;;;;;;;5.72;100.00;100774.62;1644910;87;21076;-67
2022/11/14 15:35:40;;;;;;;9.53;4.80;;;;;;;5.75;100.00;100766.08;1686449;84;21054;-66
2022/11/14 15:38:25;;;;;;;9.40;5.17;;;;;;;5.80;100.00;100771.68;1670124;84;21477;-68
2022/11/14 15:41:23;;;;;;;14.43;8.25;;;;;;;5.81;100.00;100772.80;1665960;85;21124;-68
2022/11/14 15:44:30;;;;;;;13.88;7.37;;;;;;;5.84;100.00;100774.27;1665754;84;21024;-68
2022/11/14 15:47:26;;;;;;;10.63;5.97;;;;;;;5.86;100.00;100770.84;1670202;83;21081;-68
2022/11/14 15:50:17;;;;;;;17.85;10.53;;;;;;;5.94;100.00;100763.84;1672608;84;21486;-68
2022/11/14 15:53:23;;;;;;;27.35;13.50;;;;;;;5.98;100.00;100769.95;1675548;84;21956;-67
2022/11/14 15:56:12;;;;;;;15.83;8.58;;;;;;;5.91;100.00;100769.16;1677454;84;21137;-66
2022/11/14 15:58:59;;;;;;;11.10;5.40;;;;;;;5.90;100.00;100770.20;1665663;84;21049;-66
2022/11/14 16:01:46;;;;;;;10.53;6.08;;;;;;;5.84;100.00;100761.59;1671780;84;21064;-66
2022/11/14 16:04:33;;;;;;;8.30;4.60;;;;;;;5.72;100.00;100769.22;1672928;84;21495;-66
2022/11/14 16:07:18;;;;;;;8.35;4.53;;;;;;;5.65;100.00;100761.66;1680999;84;21615;-66
2022/11/14 16:10:19;;;;;;;10.32;4.85;;;;;;;5.63;100.00;100763.25;1670013;86;20974;-66
2022/11/14 16:13:06;;;;;;;7.40;4.80;;;;;;;5.53;100.00;100762.33;1681331;84;21089;-65
2022/11/14 16:15:52;;;;;;;9.08;5.12;;;;;;;5.49;100.00;100762.45;1669170;84;21113;-66
2022/11/14 16:18:38;;;;;;;9.95;5.72;;;;;;;5.48;100.00;100764.03;1646248;86;21535;-65
2022/11/14 16:21:23;;;;;;;11.73;6.03;;;;;;;5.42;100.00;100767.59;1646741;85;21111;-69
2022/11/14 16:24:19;;;;;;;12.05;6.08;;;;;;;5.37;100.00;100771.44;1621103;88;21116;-68
2022/11/14 16:27:05;;;;;;;12.93;6.60;;;;;;;5.37;100.00;100768.73;1678373;83;21761;-69
2022/11/14 16:29:52;;;;;;;10.85;6.60;;;;;;;5.31;100.00;100760.15;1676082;84;21036;-68
2022/11/14 16:32:40;;;;;;;11.97;7.03;;;;;;;5.37;100.00;100761.47;1672500;84;21031;-69
2022/11/14 16:35:26;;;;;;;;;;;;;;;5.35;100.00;100757.34;1674369;85;21076;-68
2022/11/14 16:38:12;;;;;;;13.03;7.47;;;;;;;5.34;100.00;100756.50;1672541;84;20181;-68
2022/11/14 16:41:02;;;;;;;13.05;7.22;;;;;;;5.25;100.00;100754.23;1667257;84;21089;-68
2022/11/14 16:43:44;;;;;;;15.23;7.58;;;;;;;5.21;100.00;100753.02;1681398;84;21043;-69
2022/11/14 16:46:31;;;;;;;13.08;7.70;;;;;;;5.25;100.00;100755.58;1646653;84;21183;-68
2022/11/14 16:49:16;;;;;;;11.83;7.05;;;;;;;5.16;100.00;100755.52;1668864;84;21057;-68
2022/11/14 16:52:05;;;;;;;13.88;7.55;;;;;;;5.14;100.00;100750.83;1676243;83;21554;-67
2022/11/14 16:54:48;;;;;;;11.15;6.87;;;;;;;5.11;100.00;100753.44;1669225;84;21014;-67
2022/11/14 16:57:33;;;;;;;11.70;7.50;;;;;;;5.09;100.00;100745.25;1671083;84;21594;-67
2022/11/14 17:00:18;;;;;;;12.35;7.05;;;;;;;5.11;100.00;100753.95;1684706;84;21079;-67
2022/11/14 17:03:03;;;;;;;11.70;7.22;;;;;;;5.02;100.00;100749.32;1671926;86;21061;-66
2022/11/14 17:05:50;;;;;;;12.95;8.03;;;;;;;5.00;100.00;100744.64;1667832;84;21128;-69
2022/11/14 17:08:36;;;;;;;14.07;7.65;;;;;;;4.95;100.00;100753.39;1669543;84;21089;-66
2022/11/14 17:11:22;;;;;;;13.53;8.18;;;;;;;4.83;100.00;100752.88;1670735;84;21072;-67
2022/11/14 17:14:09;;;;;;;12.13;7.53;;;;;;;4.80;100.00;100754.12;1667415;84;21093;-65
2022/11/14 17:16:53;;;;;;;14.55;7.97;;;;;;;4.82;100.00;100758.78;1669936;84;21072;-66
2022/11/14 17:19:44;;;;;;;10.63;7.20;;;;;;;4.74;100.00;100759.02;1630642;86;21046;-67
2022/11/14 17:22:26;;;;;;;13.55;7.58;;;;;;;4.74;100.00;100758.19;1621307;87;21108;-66
2022/11/14 17:25:11;;;;;;;11.68;7.95;;;;;;;4.81;100.00;100752.27;1589056;88;21617;-67
2022/11/14 17:27:56;;;;;;;12.82;8.18;;;;;;;4.79;100.00;100754.33;1648182;85;21612;-67
2022/11/14 17:30:41;;;;;;;11.60;7.00;;;;;;;4.81;100.00;100750.41;1663541;85;22309;-68
2022/11/14 17:33:26;;;;;;;318.57;152.47;;;;;;;4.85;100.00;100753.52;1650794;85;21070;-66
2022/11/14 17:36:12;;;;;;;13.43;8.90;;;;;;;4.72;100.00;100746.25;1656342;85;21418;-66
2022/11/14 17:38:58;;;;;;;10.55;6.85;;;;;;;4.77;100.00;100746.98;1659144;85;21039;-66
2022/11/14 17:41:45;;;;;;;12.10;8.10;;;;;;;4.86;100.00;100747.89;1632011;86;21150;-67
2022/11/14 17:44:30;;;;;;;14.40;7.95;;;;;;;4.89;100.00;100743.92;1628921;86;21063;-67
2022/11/14 17:47:15;;;;;;;12.75;7.67;;;;;;;4.86;100.00;100749.23;1630021;86;21173;-67
2022/11/14 17:50:01;;;;;;;14.25;7.75;;;;;;;4.90;100.00;100747.78;1658175;85;21870;-67
2022/11/14 17:52:46;;;;;;;11.28;7.60;;;;;;;4.93;100.00;100738.42;1661181;85;21120;-66
2022/11/14 17:55:30;;;;;;;12.20;7.87;;;;;;;4.85;100.00;100736.77;1659699;86;21112;-66